Time;durP1;ratioP1;P1;durP2;ratioP2;P2;SDS_P1;SDS_P2;PMS_P1;PMS_P2;Temp;Humidity;BMP_temperature;BMP_pressure;BME280_temperature;BME280_humidity;BME280_pressure;Samples;Min_cycle;Max_cycle;Signal;HPM_P1;HPM_P2
2022/07/28 00:02:04;;;;;;;3.13;1.13;;;13.20;99.80;;;;;;4975220;28;20188;-86
2022/07/28 00:04:32;;;;;;;1.73;0.90;;;13.30;99.80;;;;;;4974815;28;20203;-87
2022/07/28 00:06:58;;;;;;;2.15;0.95;;;13.20;99.90;;;;;;4977168;28;20306;-87
2022/07/28 00:09:24;;;;;;;4.93;0.95;;;13.20;99.90;;;;;;4992472;28;20243;-87
2022/07/28 00:11:49;;;;;;;2.53;1.10;;;13.10;99.90;;;;;;4990850;28;20663;-87
2022/07/28 00:14:16;;;;;;;2.97;1.02;;;13.00;99.90;;;;;;4991844;28;20544;-87
2022/07/28 00:16:42;;;;;;;3.75;1.10;;;13.00;99.90;;;;;;4974751;28;20211;-87
2022/07/28 00:19:07;;;;;;;4.80;1.30;;;12.90;99.90;;;;;;4992522;28;20690;-86
2022/07/28 00:21:33;;;;;;;3.40;1.00;;;12.90;99.90;;;;;;4974955;28;20203;-87
2022/07/28 00:23:59;;;;;;;2.65;1.17;;;12.90;99.90;;;;;;4974707;28;20176;-87
2022/07/28 00:26:25;;;;;;;2.70;1.00;;;12.80;99.90;;;;;;4975026;28;20204;-87
2022/07/28 00:28:50;;;;;;;1.67;1.05;;;12.80;99.90;;;;;;4974181;28;20615;-87
2022/07/28 00:31:16;;;;;;;3.92;0.93;;;12.80;99.90;;;;;;4974717;28;20179;-88
2022/07/28 00:33:43;;;;;;;4.90;1.30;;;12.90;99.90;;;;;;4974296;28;20187;-86
2022/07/28 00:36:09;;;;;;;6.22;1.40;;;12.80;99.90;;;;;;4974902;28;20731;-87
2022/07/28 00:38:36;;;;;;;3.40;1.10;;;12.80;99.90;;;;;;4974514;28;20182;-87
2022/07/28 00:41:11;;;;;;;3.83;1.05;;;12.80;99.90;;;;;;4974772;28;20204;-87
2022/07/28 00:43:44;;;;;;;4.68;1.52;;;12.70;99.90;;;;;;4991104;28;20610;-87
2022/07/28 00:46:11;;;;;;;4.30;1.17;;;12.80;99.90;;;;;;4974651;28;20701;-88
2022/07/28 00:48:39;;;;;;;3.72;0.90;;;12.80;99.90;;;;;;4974571;28;20172;-87
2022/07/28 00:51:09;;;;;;;3.83;1.20;;;12.80;99.90;;;;;;4974326;28;20589;-87
2022/07/28 00:53:39;;;;;;;3.40;1.23;;;12.80;99.90;;;;;;4991950;28;20184;-87
2022/07/28 00:56:05;;;;;;;5.18;1.67;;;12.70;99.90;;;;;;4974668;28;20242;-87
2022/07/28 00:58:31;;;;;;;2.83;1.20;;;12.70;99.90;;;;;;4973390;28;20222;-88
2022/07/28 01:00:57;;;;;;;2.80;1.25;;;12.80;99.90;;;;;;4974388;28;20227;-87
2022/07/28 01:03:24;;;;;;;5.07;1.25;;;12.70;99.90;;;;;;4974020;28;20183;-87
2022/07/28 01:06:25;;;;;;;4.28;1.10;;;12.60;99.90;;;;;;4974455;28;20263;-88
2022/07/28 01:08:57;;;;;;;4.70;1.00;;;12.50;99.90;;;;;;4938821;28;20188;-87
2022/07/28 01:11:33;;;;;;;2.88;1.00;;;12.40;99.90;;;;;;4972086;28;20671;-87
2022/07/28 01:14:40;;;;;;;4.90;1.30;;;12.20;99.90;;;;;;4968766;28;20629;-87
2022/07/28 01:17:30;;;;;;;3.25;1.02;;;12.20;99.90;;;;;;4961404;28;20750;-87
2022/07/28 01:20:15;;;;;;;3.00;1.27;;;12.20;99.90;;;;;;4973883;28;20176;-87
2022/07/28 01:23:25;;;;;;;3.25;1.00;;;12.20;99.90;;;;;;4990922;28;20179;-87
2022/07/28 01:26:09;;;;;;;3.85;1.25;;;12.00;99.90;;;;;;4958801;28;20187;-87
2022/07/28 01:29:18;;;;;;;2.17;1.15;;;11.90;99.90;;;;;;4973740;28;20231;-86
2022/07/28 01:31:51;;;;;;;4.55;1.45;;;12.00;99.90;;;;;;4973994;28;20362;-87
2022/07/28 01:34:26;;;;;;;7.20;1.33;;;11.90;99.90;;;;;;4991006;28;20653;-87
2022/07/28 01:36:57;;;;;;;3.78;1.20;;;11.90;99.90;;;;;;4974093;28;20222;-87
2022/07/28 01:39:27;;;;;;;2.80;1.00;;;11.80;99.90;;;;;;4974104;28;20183;-88
2022/07/28 01:41:55;;;;;;;3.15;1.27;;;11.80;99.90;;;;;;4990675;28;20208;-87
2022/07/28 01:44:25;;;;;;;3.80;1.48;;;11.70;99.90;;;;;;4973493;28;20198;-87
2022/07/28 01:46:51;;;;;;;4.72;1.00;;;11.70;99.90;;;;;;4973810;28;20208;-87
2022/07/28 01:49:20;;;;;;;1.98;1.00;;;11.80;99.90;;;;;;5009060;28;20183;-87
2022/07/28 01:51:46;;;;;;;3.92;1.15;;;11.70;99.90;;;;;;4993471;28;20172;-86
2022/07/28 01:54:13;;;;;;;3.10;1.25;;;11.50;99.90;;;;;;4977032;28;20270;-88
2022/07/28 01:56:41;;;;;;;2.78;1.15;;;11.40;99.90;;;;;;4968153;28;20675;-87
2022/07/28 01:59:10;;;;;;;4.03;1.02;;;11.40;99.90;;;;;;4990995;28;20171;-87
2022/07/28 02:01:41;;;;;;;2.63;1.30;;;11.50;99.90;;;;;;4991328;28;20192;-87
2022/07/28 02:04:08;;;;;;;4.32;1.40;;;11.50;99.90;;;;;;4973711;28;20180;-87
2022/07/28 02:06:35;;;;;;;2.00;0.88;;;11.50;99.90;;;;;;4986539;28;20208;-86
2022/07/28 02:09:03;;;;;;;2.90;1.17;;;11.50;99.90;;;;;;4991642;28;20183;-87
2022/07/28 02:11:39;;;;;;;5.63;1.30;;;11.60;99.90;;;;;;4993897;28;20528;-88
2022/07/28 02:14:09;;;;;;;1.55;1.00;;;11.50;99.90;;;;;;4994827;28;20273;-87
2022/07/28 02:16:35;;;;;;;3.88;1.30;;;11.30;99.90;;;;;;4997962;28;20221;-87
2022/07/28 02:19:02;;;;;;;3.42;1.10;;;11.20;99.90;;;;;;4976901;28;20271;-86
2022/07/28 02:21:30;;;;;;;2.60;1.25;;;11.30;99.90;;;;;;4994452;28;20184;-86
2022/07/28 02:23:58;;;;;;;2.28;1.25;;;11.30;99.90;;;;;;4983774;28;20187;-86
2022/07/28 02:26:33;;;;;;;3.83;1.23;;;11.40;99.90;;;;;;4976741;28;20235;-88
2022/07/28 02:29:01;;;;;;;2.80;0.98;;;11.30;99.90;;;;;;4988646;28;20230;-86
2022/07/28 02:31:30;;;;;;;2.75;1.05;;;11.10;99.90;;;;;;5005347;28;20199;-87
2022/07/28 02:34:02;;;;;;;2.85;0.90;;;11.00;99.90;;;;;;4993868;28;20282;-87
2022/07/28 02:36:40;;;;;;;3.83;1.10;;;10.90;99.90;;;;;;4993753;28;20212;-87
2022/07/28 02:39:17;;;;;;;3.13;1.08;;;10.90;99.90;;;;;;4976616;28;20659;-88
2022/07/28 02:41:44;;;;;;;2.97;1.10;;;11.00;99.90;;;;;;4994046;28;20274;-87
2022/07/28 02:44:23;;;;;;;3.80;0.77;;;11.00;99.90;;;;;;4977498;28;20254;-87
2022/07/28 02:46:54;;;;;;;1.30;1.00;;;10.90;99.90;;;;;;4975583;28;20269;-87
2022/07/28 02:49:27;;;;;;;2.35;1.10;;;10.80;99.90;;;;;;4984838;28;20179;-87
2022/07/28 02:51:56;;;;;;;2.50;1.10;;;10.80;99.90;;;;;;4992403;28;20180;-87
2022/07/28 02:54:22;;;;;;;5.38;1.10;;;10.70;99.90;;;;;;4976900;28;20558;-87
2022/07/28 02:56:49;;;;;;;2.50;1.15;;;10.60;99.90;;;;;;4992614;28;20208;-87
2022/07/28 02:59:17;;;;;;;2.08;0.90;;;10.70;99.90;;;;;;4976882;28;20692;-88
2022/07/28 03:01:43;;;;;;;1.75;1.00;;;10.80;99.90;;;;;;4976152;28;20203;-86
2022/07/28 03:04:10;;;;;;;3.80;1.15;;;10.80;99.90;;;;;;4981222;28;20534;-87
2022/07/28 03:06:36;;;;;;;3.35;1.33;;;10.80;99.90;;;;;;4986077;28;20225;-86
2022/07/28 03:09:02;;;;;;;3.40;1.10;;;10.70;99.90;;;;;;4983914;28;20282;-87
2022/07/28 03:11:28;;;;;;;3.47;1.30;;;10.70;99.90;;;;;;4976007;28;20593;-87
2022/07/28 03:13:54;;;;;;;2.38;1.10;;;10.60;99.90;;;;;;4971090;28;20614;-87
2022/07/28 03:16:19;;;;;;;1.45;0.95;;;10.70;99.90;;;;;;4975383;28;20326;-87
2022/07/28 03:18:45;;;;;;;1.52;1.15;;;10.70;99.90;;;;;;4975634;28;20238;-87
2022/07/28 03:21:11;;;;;;;2.58;1.00;;;10.80;99.90;;;;;;4992115;28;20291;-86
2022/07/28 03:23:44;;;;;;;3.70;1.23;;;10.80;99.90;;;;;;4992765;28;20186;-87
2022/07/28 03:26:28;;;;;;;2.65;1.20;;;10.80;99.90;;;;;;4986093;28;20751;-87
2022/07/28 03:28:57;;;;;;;1.45;0.80;;;10.70;99.90;;;;;;4974072;28;20232;-87
2022/07/28 03:31:27;;;;;;;2.70;1.35;;;10.70;99.90;;;;;;4973700;28;20504;-86
2022/07/28 03:33:53;;;;;;;1.98;1.10;;;10.70;99.90;;;;;;4974551;28;20282;-87
2022/07/28 03:36:28;;;;;;;3.03;1.17;;;10.60;99.90;;;;;;4991344;28;20301;-87
2022/07/28 03:39:05;;;;;;;2.70;1.00;;;10.50;99.90;;;;;;4991995;28;20199;-87
2022/07/28 03:41:33;;;;;;;1.67;1.00;;;10.60;99.90;;;;;;4974889;28;20208;-86
2022/07/28 03:44:01;;;;;;;3.42;0.95;;;10.50;99.90;;;;;;4976394;28;20270;-87
2022/07/28 03:46:27;;;;;;;2.05;1.10;;;10.50;99.90;;;;;;4983458;28;20644;-88
2022/07/28 03:48:53;;;;;;;3.17;1.10;;;10.50;99.90;;;;;;4975281;28;20593;-87
2022/07/28 03:51:19;;;;;;;3.13;1.27;;;10.60;99.90;;;;;;4975128;28;20226;-87
2022/07/28 03:53:45;;;;;;;1.85;1.08;;;10.60;99.90;;;;;;4991846;28;20753;-88
2022/07/28 03:56:11;;;;;;;1.63;1.00;;;10.60;99.90;;;;;;4974597;28;20246;-86
2022/07/28 03:58:37;;;;;;;3.70;1.00;;;10.60;99.90;;;;;;4984057;28;20219;-87
2022/07/28 04:01:03;;;;;;;1.33;1.10;;;10.60;99.90;;;;;;4981757;28;20251;-86
2022/07/28 04:03:32;;;;;;;5.10;1.30;;;10.70;99.90;;;;;;4993632;28;20187;-87
2022/07/28 04:05:57;;;;;;;1.70;0.98;;;10.80;99.90;;;;;;4971668;28;20275;-86
2022/07/28 04:08:23;;;;;;;3.65;1.38;;;10.80;99.90;;;;;;4974314;28;20620;-87
2022/07/28 04:10:49;;;;;;;1.85;1.05;;;10.80;99.90;;;;;;4982207;28;20614;-87
2022/07/28 04:13:15;;;;;;;2.72;1.20;;;10.80;99.90;;;;;;4973893;28;20274;-87
2022/07/28 04:15:41;;;;;;;2.67;1.23;;;10.70;99.90;;;;;;4982680;28;20277;-87
2022/07/28 04:18:07;;;;;;;2.47;1.02;;;10.70;99.90;;;;;;4974077;28;20235;-88
2022/07/28 04:20:32;;;;;;;3.80;1.30;;;10.60;99.90;;;;;;4974449;28;20203;-87
2022/07/28 04:22:58;;;;;;;2.15;0.85;;;10.60;99.90;;;;;;4977186;28;20656;-86
2022/07/28 04:25:26;;;;;;;3.35;1.27;;;10.70;99.90;;;;;;4974345;28;20192;-87
2022/07/28 04:27:52;;;;;;;4.00;1.23;;;10.80;99.90;;;;;;4974215;28;20281;-87
2022/07/28 04:30:20;;;;;;;3.38;1.42;;;10.90;99.90;;;;;;4990125;28;20246;-87
2022/07/28 04:32:50;;;;;;;4.10;1.42;;;11.00;99.90;;;;;;4973714;28;20195;-88
2022/07/28 04:35:16;;;;;;;6.75;1.55;;;11.20;99.90;;;;;;4973740;28;20203;-87
2022/07/28 04:37:42;;;;;;;3.08;1.30;;;11.20;99.90;;;;;;4974022;28;20306;-87
2022/07/28 04:40:11;;;;;;;3.17;1.30;;;11.30;99.90;;;;;;4974810;28;20212;-87
2022/07/28 04:42:40;;;;;;;4.13;1.38;;;11.50;99.90;;;;;;4974287;28;20188;-87
2022/07/28 04:45:11;;;;;;;4.22;1.42;;;11.50;99.90;;;;;;4980950;28;20632;-86
2022/07/28 04:47:37;;;;;;;3.20;1.23;;;11.60;99.90;;;;;;4973802;28;20273;-87
2022/07/28 04:50:04;;;;;;;2.47;1.33;;;11.60;99.90;;;;;;4982876;28;20266;-87
2022/07/28 04:52:32;;;;;;;3.88;1.35;;;11.70;99.90;;;;;;4982693;28;20203;-87
2022/07/28 04:54:58;;;;;;;7.20;1.60;;;11.90;99.90;;;;;;4973681;28;20184;-87
2022/07/28 04:57:26;;;;;;;4.90;1.40;;;11.90;99.90;;;;;;4991285;28;20634;-87
2022/07/28 04:59:53;;;;;;;3.97;1.50;;;12.00;99.90;;;;;;4984999;28;20718;-87
2022/07/28 05:02:20;;;;;;;2.90;1.10;;;12.00;99.90;;;;;;4982461;28;20190;-87
2022/07/28 05:04:46;;;;;;;2.25;1.08;;;12.10;99.90;;;;;;4991034;28;20628;-87
2022/07/28 05:07:12;;;;;;;1.75;1.10;;;12.10;99.90;;;;;;4973827;28;20311;-87
2022/07/28 05:09:38;;;;;;;6.35;1.25;;;12.10;99.90;;;;;;4980132;28;20186;-88
2022/07/28 05:12:05;;;;;;;3.20;1.50;;;12.20;99.90;;;;;;4981535;28;20187;-88
2022/07/28 05:14:31;;;;;;;3.78;1.30;;;12.20;99.90;;;;;;4999218;28;20229;-87
2022/07/28 05:16:57;;;;;;;3.95;1.30;;;12.40;99.90;;;;;;4974749;28;20204;-87
2022/07/28 05:19:23;;;;;;;2.55;1.00;;;12.40;99.90;;;;;;4966340;28;20187;-87
2022/07/28 05:21:49;;;;;;;2.15;1.23;;;12.50;99.90;;;;;;4988665;28;20257;-87
2022/07/28 05:24:14;;;;;;;5.05;1.50;;;12.50;99.90;;;;;;4982447;28;20242;-88
2022/07/28 05:26:40;;;;;;;4.63;1.55;;;12.50;99.90;;;;;;4991521;28;20203;-87
2022/07/28 05:29:06;;;;;;;4.03;1.58;;;12.50;99.90;;;;;;4953710;28;20225;-88
2022/07/28 05:31:32;;;;;;;2.38;1.30;;;12.60;99.90;;;;;;4952518;28;20684;-88
2022/07/28 05:33:59;;;;;;;3.45;1.35;;;12.70;99.90;;;;;;4951665;28;20189;-88
2022/07/28 05:36:25;;;;;;;2.83;1.10;;;12.80;99.90;;;;;;4951465;28;20271;-88
2022/07/28 05:38:51;;;;;;;1.98;1.20;;;12.70;99.90;;;;;;4950494;28;20193;-87
2022/07/28 05:41:17;;;;;;;6.47;1.60;;;12.80;99.90;;;;;;4944256;28;20197;-87
2022/07/28 05:43:43;;;;;;;3.05;1.38;;;12.90;99.90;;;;;;4952248;28;20176;-87
2022/07/28 05:46:09;;;;;;;4.75;1.50;;;12.90;99.90;;;;;;4955434;28;20551;-87
2022/07/28 05:48:35;;;;;;;5.70;1.40;;;12.90;99.90;;;;;;4956014;29;20264;-87
2022/07/28 05:51:00;;;;;;;4.55;1.60;;;12.90;99.90;;;;;;4955326;29;20283;-87
2022/07/28 05:53:26;;;;;;;3.10;1.73;;;12.90;99.90;;;;;;4955255;29;20181;-88
2022/07/28 05:55:52;;;;;;;3.40;1.52;;;13.00;99.90;;;;;;4954780;29;20624;-88
2022/07/28 05:58:22;;;;;;;3.33;1.63;;;13.10;99.90;;;;;;4954875;28;20193;-87
2022/07/28 06:00:48;;;;;;;3.28;1.00;;;13.20;99.90;;;;;;4954100;28;20220;-87
2022/07/28 06:03:14;;;;;;;3.95;1.00;;;13.20;99.90;;;;;;4954683;29;20280;-88
2022/07/28 06:05:41;;;;;;;3.05;1.30;;;13.30;99.90;;;;;;4955688;29;20209;-87
2022/07/28 06:08:06;;;;;;;2.83;1.23;;;13.30;99.90;;;;;;4955795;28;20271;-88
2022/07/28 06:13:17;;;;;;;2.08;1.10;;;13.50;99.90;;;;;;4956522;29;20575;-87
2022/07/28 06:15:45;;;;;;;2.97;0.95;;;13.60;99.90;;;;;;4955766;28;20189;-88
2022/07/28 06:18:12;;;;;;;3.78;1.10;;;13.60;99.90;;;;;;4955203;28;20208;-87
2022/07/28 06:20:38;;;;;;;5.50;1.23;;;13.60;99.90;;;;;;4956370;28;20188;-87
2022/07/28 06:23:04;;;;;;;2.92;1.20;;;13.70;99.90;;;;;;4955927;28;20661;-88
2022/07/28 06:25:30;;;;;;;2.28;0.82;;;13.80;99.90;;;;;;4954576;29;20766;-87
2022/07/28 06:27:59;;;;;;;2.35;0.95;;;13.90;99.90;;;;;;4954127;28;20595;-87
2022/07/28 06:30:25;;;;;;;4.82;1.48;;;14.00;99.90;;;;;;4955707;29;20166;-88
2022/07/28 06:32:52;;;;;;;2.45;0.95;;;14.10;99.90;;;;;;4954157;29;20623;-88
2022/07/28 06:35:18;;;;;;;2.72;0.80;;;14.20;99.90;;;;;;4955689;29;20174;-88
2022/07/28 06:37:49;;;;;;;2.45;0.90;;;14.40;99.90;;;;;;4953194;28;20707;-88
2022/07/28 06:40:16;;;;;;;4.32;1.05;;;14.40;99.90;;;;;;4954148;29;20212;-87
2022/07/28 06:42:43;;;;;;;4.18;0.80;;;14.50;99.90;;;;;;4946989;28;20285;-87
2022/07/28 06:45:10;;;;;;;2.53;1.00;;;14.50;99.90;;;;;;4953947;29;20193;-88
2022/07/28 06:47:37;;;;;;;5.28;1.30;;;14.50;99.90;;;;;;4952938;29;20296;-87
2022/07/28 06:50:05;;;;;;;2.67;0.85;;;14.60;99.90;;;;;;4938905;29;20186;-87
2022/07/28 06:52:33;;;;;;;4.00;0.90;;;14.60;99.90;;;;;;4935709;29;20265;-87
2022/07/28 06:54:59;;;;;;;2.97;0.98;;;14.70;99.90;;;;;;4933480;29;20285;-89
2022/07/28 06:57:26;;;;;;;6.80;1.10;;;14.70;99.90;;;;;;4947544;29;20212;-87
2022/07/28 06:59:52;;;;;;;3.38;0.90;;;14.70;99.90;;;;;;4953743;29;20169;-87
2022/07/28 07:02:17;;;;;;;4.78;1.10;;;14.80;99.90;;;;;;4953574;29;20197;-87
2022/07/28 07:04:44;;;;;;;7.93;1.05;;;14.90;99.90;;;;;;4953834;29;20663;-88
2022/07/28 07:07:09;;;;;;;4.88;1.17;;;15.00;99.90;;;;;;4953607;28;20213;-87
2022/07/28 07:09:35;;;;;;;4.28;0.77;;;15.10;99.90;;;;;;4953103;28;20190;-88
2022/07/28 07:12:01;;;;;;;2.45;1.20;;;15.30;99.80;;;;;;4953460;29;20192;-87
2022/07/28 07:14:27;;;;;;;3.92;1.00;;;15.50;99.10;;;;;;4953624;29;20229;-87
2022/07/28 07:16:54;;;;;;;5.95;1.00;;;15.60;98.30;;;;;;4953088;29;20212;-87
2022/07/28 07:19:20;;;;;;;5.43;0.93;;;15.70;97.60;;;;;;4952929;29;20281;-88
2022/07/28 07:21:49;;;;;;;7.03;1.17;;;15.80;97.30;;;;;;4954330;29;20225;-87
2022/07/28 07:24:16;;;;;;;4.45;0.95;;;15.80;97.10;;;;;;4953161;29;20672;-87
2022/07/28 07:26:41;;;;;;;6.00;1.70;;;15.80;97.80;;;;;;4953047;29;20668;-87
2022/07/28 07:29:09;;;;;;;6.03;1.00;;;15.90;97.00;;;;;;4987944;28;20226;-87
2022/07/28 07:31:35;;;;;;;2.50;0.90;;;15.90;96.90;;;;;;4976031;28;20663;-87
2022/07/28 07:34:01;;;;;;;3.92;1.08;;;16.00;96.10;;;;;;4976022;28;20271;-87
2022/07/28 07:36:27;;;;;;;3.17;1.10;;;16.20;95.80;;;;;;4975596;28;20231;-88
2022/07/28 07:38:53;;;;;;;4.30;0.90;;;16.30;95.90;;;;;;4976023;28;20184;-88
2022/07/28 07:41:19;;;;;;;15.20;1.20;;;16.50;95.20;;;;;;4975817;28;20195;-88
2022/07/28 07:43:48;;;;;;;1.90;0.90;;;16.70;94.80;;;;;;4975764;28;20192;-87
2022/07/28 07:46:15;;;;;;;3.95;1.10;;;16.70;94.70;;;;;;4975936;28;20238;-87
2022/07/28 07:48:42;;;;;;;4.15;1.40;;;16.90;94.70;;;;;;4975876;28;20210;-87
2022/07/28 07:51:09;;;;;;;2.47;0.95;;;17.00;93.50;;;;;;4976184;28;20218;-88
2022/07/28 07:53:35;;;;;;;5.60;1.15;;;17.10;93.70;;;;;;4975562;28;20267;-86
2022/07/28 07:56:01;;;;;;;4.78;0.75;;;17.30;94.10;;;;;;4988777;28;20265;-88
2022/07/28 07:58:27;;;;;;;2.15;0.90;;;17.50;93.30;;;;;;4967086;28;20648;-87
2022/07/28 08:00:53;;;;;;;2.80;0.93;;;17.60;92.30;;;;;;4965588;28;20192;-87
2022/07/28 08:03:19;;;;;;;3.35;0.82;;;17.80;92.30;;;;;;4965306;28;20259;-88
2022/07/28 08:05:45;;;;;;;2.58;0.93;;;17.90;91.60;;;;;;4974467;28;20175;-88
2022/07/28 08:08:11;;;;;;;3.53;1.10;;;18.00;92.10;;;;;;4971677;28;20200;-88
2022/07/28 08:10:38;;;;;;;2.25;0.93;;;18.10;91.50;;;;;;4973611;28;20184;-87
2022/07/28 08:13:05;;;;;;;1.55;0.80;;;18.20;91.20;;;;;;4974574;28;20196;-88
2022/07/28 08:15:32;;;;;;;5.03;0.90;;;18.30;91.00;;;;;;4991047;28;20267;-87
2022/07/28 08:17:59;;;;;;;2.80;1.15;;;18.40;90.10;;;;;;4973626;28;20199;-88
2022/07/28 08:20:25;;;;;;;2.83;1.00;;;18.50;90.50;;;;;;4973418;28;20270;-87
2022/07/28 08:22:53;;;;;;;6.15;0.70;;;18.60;90.50;;;;;;4974557;28;20192;-86
2022/07/28 08:25:19;;;;;;;5.13;0.85;;;18.60;89.70;;;;;;4974257;28;20206;-88
2022/07/28 08:27:45;;;;;;;5.55;1.00;;;18.70;89.40;;;;;;4964671;28;20224;-88
2022/07/28 08:30:13;;;;;;;3.30;0.88;;;18.90;89.20;;;;;;4948733;29;20213;-87
2022/07/28 08:32:39;;;;;;;1.38;0.60;;;18.90;88.00;;;;;;4952278;29;20244;-88
2022/07/28 08:35:08;;;;;;;4.15;1.00;;;18.80;87.40;;;;;;4951479;29;20200;-89
2022/07/28 08:37:36;;;;;;;6.00;0.90;;;18.90;88.20;;;;;;4943803;29;20201;-88
2022/07/28 08:40:03;;;;;;;2.58;0.65;;;19.10;88.90;;;;;;4935447;29;20225;-87
2022/07/28 08:42:49;;;;;;;0.90;0.60;;;19.20;88.40;;;;;;4952004;29;20169;-87
2022/07/28 08:45:17;;;;;;;2.33;0.90;;;19.30;86.00;;;;;;4939679;28;20180;-88
2022/07/28 08:47:43;;;;;;;3.22;1.10;;;19.10;87.30;;;;;;4951607;28;20280;-88
2022/07/28 08:50:11;;;;;;;3.63;0.80;;;19.20;87.00;;;;;;4951320;29;20613;-87
2022/07/28 08:52:38;;;;;;;1.67;0.70;;;19.30;88.00;;;;;;4951898;29;20172;-87
2022/07/28 08:55:06;;;;;;;3.90;0.82;;;19.30;86.40;;;;;;4951427;28;20185;-88
2022/07/28 08:57:35;;;;;;;0.93;0.60;;;19.50;86.70;;;;;;4951639;28;20232;-87
2022/07/28 09:00:01;;;;;;;3.55;0.90;;;19.50;86.50;;;;;;4950920;29;20554;-89
2022/07/28 09:02:28;;;;;;;1.35;0.77;;;19.50;85.10;;;;;;4951315;29;20181;-88
2022/07/28 09:04:56;;;;;;;1.90;0.73;;;19.70;86.60;;;;;;4951324;28;20357;-88
2022/07/28 09:07:22;;;;;;;2.45;0.93;;;19.80;85.00;;;;;;4946698;29;20201;-87
2022/07/28 09:09:49;;;;;;;3.13;0.57;;;19.80;86.00;;;;;;4932442;29;20282;-88
2022/07/28 09:12:15;;;;;;;2.05;0.70;;;19.80;85.00;;;;;;4932235;29;20179;-89
2022/07/28 09:14:41;;;;;;;3.85;1.10;;;19.90;85.80;;;;;;4931736;29;20240;-87
2022/07/28 09:17:07;;;;;;;2.95;0.75;;;20.00;84.20;;;;;;4936531;29;20650;-88
2022/07/28 09:19:36;;;;;;;9.57;1.00;;;20.10;85.00;;;;;;4950344;29;20177;-88
2022/07/28 09:22:02;;;;;;;1.98;0.65;;;20.10;84.40;;;;;;4949718;29;20665;-90
2022/07/28 09:24:34;;;;;;;2.28;0.63;;;20.20;84.60;;;;;;4934956;29;20174;-88
2022/07/28 09:27:01;;;;;;;2.72;0.70;;;20.40;86.20;;;;;;4950189;28;20319;-88
2022/07/28 09:29:27;;;;;;;2.97;0.82;;;20.40;82.90;;;;;;4991019;28;20203;-89
2022/07/28 09:31:53;;;;;;;5.72;1.00;;;20.50;83.80;;;;;;4973581;28;20226;-88
2022/07/28 09:34:18;;;;;;;1.38;0.80;;;20.60;82.20;;;;;;4972972;28;20196;-87
2022/07/28 09:36:45;;;;;;;1.35;0.60;;;20.60;81.70;;;;;;4990714;28;20204;-88
2022/07/28 09:39:30;;;;;;;1.73;0.70;;;20.70;83.20;;;;;;4973631;28;20194;-86
2022/07/28 09:41:55;;;;;;;3.33;0.90;;;20.80;81.80;;;;;;4974136;28;20214;-88
2022/07/28 09:44:23;;;;;;;1.75;0.73;;;20.70;81.80;;;;;;4973739;28;20183;-89
2022/07/28 09:46:49;;;;;;;2.35;0.70;;;20.60;81.80;;;;;;4989689;28;20199;-87
2022/07/28 09:49:15;;;;;;;2.80;1.10;;;20.60;82.00;;;;;;4966368;28;20591;-88
2022/07/28 09:51:41;;;;;;;2.83;0.90;;;20.70;82.90;;;;;;4965533;28;20243;-87
2022/07/28 09:54:16;;;;;;;1.63;0.70;;;20.80;83.00;;;;;;4970096;28;20183;-90
2022/07/28 09:56:43;;;;;;;1.52;0.73;;;21.00;82.30;;;;;;4966955;28;20207;-88
2022/07/28 09:59:10;;;;;;;5.20;0.90;;;21.00;81.00;;;;;;4973228;28;20180;-87
2022/07/28 10:01:52;;;;;;;2.55;0.93;;;21.00;81.10;;;;;;4972625;28;20202;-87
2022/07/28 10:04:34;;;;;;;4.07;0.90;;;21.10;82.10;;;;;;4972828;28;20165;-88
2022/07/28 10:07:10;;;;;;;4.82;0.90;;;20.90;79.60;;;;;;4973254;28;20849;-87
2022/07/28 10:09:37;;;;;;;2.58;0.85;;;21.00;81.80;;;;;;4953780;28;20207;-87
2022/07/28 10:12:21;;;;;;;2.75;0.77;;;21.10;82.50;;;;;;4954044;28;20260;-87
2022/07/28 10:14:49;;;;;;;3.10;0.95;;;21.30;81.30;;;;;;4961194;28;20605;-88
2022/07/28 10:17:33;;;;;;;4.25;0.77;;;21.30;80.40;;;;;;4972391;28;20216;-87
2022/07/28 10:20:01;;;;;;;2.92;0.88;;;21.40;81.30;;;;;;4953117;28;20173;-88
2022/07/28 10:22:32;;;;;;;1.85;0.88;;;21.40;80.20;;;;;;4953896;28;20292;-86
2022/07/28 10:25:09;;;;;;;4.35;0.80;;;21.50;81.30;;;;;;4953596;28;20215;-86
2022/07/28 10:27:38;;;;;;;2.38;0.80;;;21.50;79.60;;;;;;4967692;28;20231;-89
2022/07/28 10:30:05;;;;;;;1.85;0.80;;;21.60;80.70;;;;;;4973859;28;20180;-88
2022/07/28 10:32:40;;;;;;;3.20;1.27;;;21.60;80.50;;;;;;4976456;28;20214;-88
2022/07/28 10:35:12;;;;;;;1.60;0.60;;;21.50;78.90;;;;;;4975778;28;20595;-87
2022/07/28 10:38:04;;;;;;;3.55;0.90;;;21.60;81.20;;;;;;4994033;28;20697;-87
2022/07/28 10:40:45;;;;;;;2.78;0.73;;;21.80;80.10;;;;;;4993108;28;20203;-86
2022/07/28 10:43:12;;;;;;;2.35;0.90;;;21.70;78.30;;;;;;4976168;28;20254;-87
2022/07/28 10:45:39;;;;;;;3.00;0.88;;;21.40;78.90;;;;;;4993183;28;20168;-88
2022/07/28 10:48:05;;;;;;;1.85;0.80;;;21.10;78.30;;;;;;4992976;28;20709;-87
2022/07/28 10:50:33;;;;;;;3.70;1.05;;;21.20;80.50;;;;;;4975722;28;20176;-87
2022/07/28 10:53:05;;;;;;;2.78;0.85;;;21.20;80.50;;;;;;4993647;28;20172;-88
2022/07/28 10:56:14;;;;;;;3.28;0.85;;;21.20;77.90;;;;;;4961649;28;20195;-88
2022/07/28 10:59:02;;;;;;;3.38;0.93;;;21.40;78.10;;;;;;4960273;28;20196;-87
2022/07/28 11:01:36;;;;;;;3.58;0.90;;;21.60;77.70;;;;;;4978324;28;20196;-89
2022/07/28 11:04:03;;;;;;;2.42;0.63;;;21.70;78.40;;;;;;4977434;28;20170;-90
2022/07/28 11:06:43;;;;;;;5.65;0.88;;;21.60;78.20;;;;;;4975545;28;20249;-87
2022/07/28 11:09:15;;;;;;;2.25;0.70;;;21.50;78.80;;;;;;4975072;28;20185;-87
2022/07/28 11:11:49;;;;;;;1.70;0.98;;;21.40;78.30;;;;;;4975396;28;20214;-88
2022/07/28 11:14:36;;;;;;;4.55;0.98;;;21.60;77.80;;;;;;4975431;28;20168;-87
2022/07/28 11:17:05;;;;;;;1.90;0.60;;;21.70;78.10;;;;;;4972932;28;20303;-87
2022/07/28 11:19:43;;;;;;;1.83;0.80;;;21.80;76.20;;;;;;4955792;28;20243;-87
2022/07/28 11:22:15;;;;;;;2.08;0.80;;;22.00;79.20;;;;;;4955941;28;20200;-87
2022/07/28 11:24:56;;;;;;;3.38;1.02;;;22.10;77.00;;;;;;4974420;28;20176;-89
2022/07/28 11:27:41;;;;;;;2.80;0.73;;;22.20;77.30;;;;;;4974871;28;20319;-87
2022/07/28 11:30:30;;;;;;;3.45;0.77;;;22.30;77.30;;;;;;4974563;28;20188;-88
2022/07/28 11:32:57;;;;;;;5.13;0.90;;;22.40;76.50;;;;;;4958369;28;20239;-87
2022/07/28 11:35:25;;;;;;;2.05;0.80;;;22.50;76.80;;;;;;4975184;28;20206;-88
2022/07/28 11:38:00;;;;;;;3.30;0.60;;;22.70;75.20;;;;;;4970425;28;20196;-86
2022/07/28 11:40:53;;;;;;;1.38;0.65;;;22.60;76.20;;;;;;4964136;28;20196;-88
2022/07/28 11:43:23;;;;;;;2.45;0.75;;;22.70;76.60;;;;;;4989198;28;20179;-88
2022/07/28 11:45:49;;;;;;;2.42;0.80;;;22.70;76.40;;;;;;4990049;28;20176;-87
2022/07/28 11:48:20;;;;;;;1.45;0.70;;;22.80;74.90;;;;;;4972182;28;20200;-87
2022/07/28 11:51:13;;;;;;;3.15;1.02;;;22.70;74.20;;;;;;4977539;28;20747;-90
2022/07/28 11:53:42;;;;;;;2.13;0.70;;;22.70;74.90;;;;;;4969069;28;20564;-87
2022/07/28 11:56:11;;;;;;;1.70;0.75;;;22.50;74.90;;;;;;4958457;28;20274;-87
2022/07/28 11:58:38;;;;;;;3.13;0.80;;;22.70;76.10;;;;;;4974757;28;20249;-87
2022/07/28 12:01:16;;;;;;;2.55;0.88;;;22.90;75.30;;;;;;4992262;28;20306;-87
2022/07/28 12:03:43;;;;;;;2.38;0.80;;;22.80;74.30;;;;;;4975050;28;20258;-88
2022/07/28 12:06:10;;;;;;;1.05;0.63;;;22.90;74.10;;;;;;4974454;28;20601;-87
2022/07/28 12:08:53;;;;;;;2.65;1.13;;;22.90;74.70;;;;;;4975861;28;20176;-88
2022/07/28 12:11:20;;;;;;;2.50;0.65;;;23.10;76.10;;;;;;4954967;28;20177;-87
2022/07/28 12:13:57;;;;;;;2.70;0.85;;;23.40;76.20;;;;;;4971783;28;20195;-88
2022/07/28 12:16:26;;;;;;;4.13;1.02;;;23.60;73.50;;;;;;4960037;28;20663;-89
2022/07/28 12:18:52;;;;;;;2.35;0.70;;;23.60;73.20;;;;;;4974920;28;20180;-87
2022/07/28 12:21:34;;;;;;;1.92;0.70;;;23.60;73.80;;;;;;4991729;28;20195;-88
2022/07/28 12:24:00;;;;;;;1.65;0.68;;;23.50;74.70;;;;;;4974067;28;20223;-88
2022/07/28 12:26:29;;;;;;;1.75;0.60;;;23.60;73.50;;;;;;4991109;28;20199;-87
2022/07/28 12:28:55;;;;;;;3.97;0.93;;;23.50;72.60;;;;;;4992339;28;20230;-87
2022/07/28 12:31:26;;;;;;;3.17;1.25;;;23.60;75.10;;;;;;4993486;28;20583;-87
2022/07/28 12:33:51;;;;;;;3.38;0.70;;;23.70;71.70;;;;;;4992220;28;20662;-89
2022/07/28 12:36:20;;;;;;;2.97;0.70;;;23.60;73.80;;;;;;4973648;28;20207;-87
2022/07/28 12:38:46;;;;;;;2.28;0.85;;;23.80;74.50;;;;;;4991343;28;20227;-88
2022/07/28 12:41:16;;;;;;;7.07;1.08;;;23.80;73.40;;;;;;4969111;28;20200;-88
2022/07/28 12:43:50;;;;;;;2.42;0.90;;;23.90;73.00;;;;;;4954274;28;20179;-88
2022/07/28 12:46:24;;;;;;;2.28;0.77;;;23.90;72.10;;;;;;4970877;28;20238;-87
2022/07/28 12:48:54;;;;;;;5.05;1.23;;;23.90;73.80;;;;;;4954434;28;20188;-87
2022/07/28 12:51:32;;;;;;;1.08;0.50;;;24.00;73.80;;;;;;4971620;28;20244;-86
2022/07/28 12:53:57;;;;;;;1.80;0.90;;;24.20;73.60;;;;;;4954630;28;20577;-87
2022/07/28 12:56:24;;;;;;;4.38;0.90;;;24.20;71.00;;;;;;4973905;28;20204;-88
2022/07/28 12:59:07;;;;;;;2.35;0.88;;;23.70;71.60;;;;;;4973784;28;20191;-88
2022/07/28 13:01:53;;;;;;;5.28;0.70;;;23.90;73.30;;;;;;4973794;28;20246;-88
2022/07/28 13:04:41;;;;;;;1.75;0.70;;;24.00;72.30;;;;;;4973606;28;20252;-87